Time;durP1;ratioP1;P1;durP2;ratioP2;P2;SDS_P1;SDS_P2;PMS_P1;PMS_P2;Temp;Humidity;BMP_temperature;BMP_pressure;BME280_temperature;BME280_humidity;BME280_pressure;Samples;Min_cycle;Max_cycle;Signal;HPM_P1;HPM_P2
2024/01/30 00:00:02;;;;;;;16.13;10.60;;;;;;;2.48;71.13;99950.97;4996685;28;103346;-72
2024/01/30 00:02:33;;;;;;;14.88;8.45;;;;;;;2.51;71.92;99946.53;5001700;28;102746;-72
2024/01/30 00:05:03;;;;;;;18.42;9.60;;;;;;;2.46;72.15;99946.75;4998188;28;103650;-72
2024/01/30 00:07:31;;;;;;;19.02;10.57;;;;;;;2.44;72.38;99939.00;4979076;28;104597;-72
2024/01/30 00:10:02;;;;;;;18.77;10.30;;;;;;;2.31;73.41;99938.84;5000792;28;103157;-72
2024/01/30 00:12:31;;;;;;;17.08;11.23;;;;;;;2.27;73.73;99944.34;4987915;28;102713;-72
2024/01/30 00:15:04;;;;;;;13.55;9.55;;;;;;;2.36;73.39;99941.22;4980333;28;103495;-72
2024/01/30 00:17:32;;;;;;;21.55;11.68;;;;;;;2.40;74.01;99941.91;4984640;28;104679;-72
2024/01/30 00:20:05;;;;;;;18.02;10.77;;;;;;;2.45;73.35;99940.69;4994942;28;103271;-72
2024/01/30 00:22:33;;;;;;;14.13;9.65;;;;;;;2.48;73.24;99944.91;4997272;28;102938;-71
2024/01/30 00:25:01;;;;;;;12.40;8.75;;;;;;;2.61;72.66;99945.09;4999477;28;104508;-71
2024/01/30 00:27:29;;;;;;;14.45;8.27;;;;;;;2.55;71.86;99945.41;4977729;28;104567;-72
2024/01/30 00:29:57;;;;;;;15.10;10.93;;;;;;;2.46;70.82;99939.78;4998014;28;103462;-72
2024/01/30 00:32:25;;;;;;;12.68;8.27;;;;;;;2.40;73.50;99936.66;5001429;28;102610;-72
2024/01/30 00:34:53;;;;;;;18.77;11.50;;;;;;;2.41;73.42;99941.81;4984347;28;103934;-71
2024/01/30 00:37:23;;;;;;;19.58;10.00;;;;;;;2.50;73.34;99948.28;4991464;28;103234;-72
2024/01/30 00:39:51;;;;;;;11.25;8.32;;;;;;;2.49;73.11;99941.38;4976046;28;104418;-72
2024/01/30 00:42:19;;;;;;;12.95;7.82;;;;;;;2.57;72.11;99938.31;4998968;28;102978;-72
2024/01/30 00:44:47;;;;;;;15.63;10.73;;;;;;;2.60;72.42;99948.63;5004769;28;102634;-71
2024/01/30 00:47:15;;;;;;;9.82;7.38;;;;;;;2.61;72.04;99947.69;4997803;28;104187;-72
2024/01/30 00:49:43;;;;;;;18.50;10.30;;;;;;;2.42;73.12;99953.94;4981319;28;104526;-72
2024/01/30 00:52:11;;;;;;;13.35;8.63;;;;;;;2.52;72.71;99951.66;4999259;28;102726;-72
2024/01/30 00:54:40;;;;;;;11.32;7.68;;;;;;;2.59;72.12;99949.53;4999012;28;104207;-72
2024/01/30 00:57:09;;;;;;;17.55;10.63;;;;;;;2.57;70.42;99949.63;4977303;28;103262;-71
2024/01/30 00:59:37;;;;;;;13.13;8.35;;;;;;;2.51;71.52;99946.53;4973702;28;105226;-72
2024/01/30 01:02:05;;;;;;;12.80;8.52;;;;;;;2.37;71.46;99953.38;5000817;28;102681;-71
2024/01/30 01:04:33;;;;;;;12.27;7.43;;;;;;;2.45;71.42;99948.56;5000429;28;102641;-72
2024/01/30 01:07:01;;;;;;;10.60;7.13;;;;;;;2.46;71.60;99941.53;5002712;28;103263;-72
2024/01/30 01:09:29;;;;;;;9.65;7.13;;;;;;;2.48;70.80;99950.16;5000537;28;103269;-71
2024/01/30 01:11:58;;;;;;;12.43;7.95;;;;;;;2.52;71.07;99950.84;4978812;28;102755;-72
2024/01/30 01:14:26;;;;;;;13.57;9.70;;;;;;;2.27;71.92;99958.25;4995266;28;102733;-72
2024/01/30 01:16:54;;;;;;;23.23;11.77;;;;;;;2.33;71.38;99949.22;4981384;28;104156;-72
2024/01/30 01:19:23;;;;;;;18.10;11.38;;;;;;;2.13;73.80;99953.75;4986675;28;103442;-72
2024/01/30 01:21:53;;;;;;;15.48;9.60;;;;;;;2.18;74.00;99955.31;4990663;28;102812;-72
2024/01/30 01:24:22;;;;;;;11.60;7.82;;;;;;;2.31;73.53;99953.69;4999645;28;102679;-72
2024/01/30 01:26:49;;;;;;;10.68;7.68;;;;;;;2.35;73.05;99954.38;4978159;28;104506;-71
2024/01/30 01:29:20;;;;;;;11.05;7.53;;;;;;;2.37;72.66;99953.38;4992793;28;103129;-72
2024/01/30 01:31:48;;;;;;;12.35;9.10;;;;;;;2.35;71.73;99944.75;4991261;28;103126;-72
2024/01/30 01:34:16;;;;;;;14.23;10.63;;;;;;;2.29;71.09;99945.94;5000198;28;103202;-72
2024/01/30 01:36:44;;;;;;;12.25;9.38;;;;;;;2.23;71.71;99943.66;4978772;28;104190;-72
2024/01/30 01:39:13;;;;;;;11.02;7.75;;;;;;;2.26;71.80;99940.88;4995804;27;104896;-71
2024/01/30 01:41:41;;;;;;;12.63;8.43;;;;;;;2.14;72.94;99941.56;5000937;28;102738;-71
2024/01/30 01:44:09;;;;;;;15.85;9.25;;;;;;;2.11;73.65;99955.63;4990140;28;102716;-70
2024/01/30 01:46:42;;;;;;;16.13;10.60;;;;;;;2.06;74.61;99944.59;5005802;28;103760;-71
2024/01/30 01:49:10;;;;;;;17.77;11.70;;;;;;;2.06;75.20;99949.81;4996979;28;103525;-71
2024/01/30 01:51:40;;;;;;;14.45;11.02;;;;;;;2.09;74.37;99944.41;4999416;28;102599;-71
2024/01/30 01:54:09;;;;;;;14.35;9.57;;;;;;;2.19;74.16;99944.75;5000708;28;102794;-71
2024/01/30 01:56:38;;;;;;;19.02;11.80;;;;;;;2.20;72.70;99940.38;4981927;28;103451;-71
2024/01/30 01:59:08;;;;;;;18.23;11.85;;;;;;;2.00;73.63;99950.13;4987728;28;104311;-71
2024/01/30 02:01:37;;;;;;;17.08;11.52;;;;;;;1.93;74.89;99948.78;4999664;28;102647;-71
2024/01/30 02:04:09;;;;;;;16.10;10.77;;;;;;;2.03;74.78;99949.97;5003646;28;102758;-71
2024/01/30 02:06:38;;;;;;;19.13;12.07;;;;;;;1.98;74.51;99952.84;4991815;28;103231;-72
2024/01/30 02:09:06;;;;;;;18.67;11.70;;;;;;;1.92;75.48;99947.09;5001454;28;103254;-71
2024/01/30 02:11:35;;;;;;;18.42;10.38;;;;;;;2.02;75.03;99948.28;5001608;28;102741;-71
2024/01/30 02:14:06;;;;;;;17.55;11.63;;;;;;;2.13;74.55;99955.53;4979964;28;104330;-71
2024/01/30 02:16:33;;;;;;;20.52;12.45;;;;;;;2.14;74.70;99954.63;4978538;28;104193;-71
2024/01/30 02:19:01;;;;;;;15.88;10.90;;;;;;;2.15;74.98;99944.06;5004830;28;103229;-72
2024/01/30 02:21:31;;;;;;;12.90;9.00;;;;;;;2.23;73.85;99955.91;4998953;28;102653;-71
2024/01/30 02:24:00;;;;;;;16.42;10.68;;;;;;;2.29;73.39;99952.94;4999156;28;102676;-71
2024/01/30 02:26:28;;;;;;;15.18;8.98;;;;;;;2.30;73.00;99952.84;4999421;28;103371;-71
2024/01/30 02:28:56;;;;;;;19.23;11.07;;;;;;;2.31;73.32;99953.69;4987282;28;103326;-71
2024/01/30 02:31:26;;;;;;;17.13;10.43;;;;;;;2.25;73.45;99954.84;4991456;28;102991;-71
2024/01/30 02:33:54;;;;;;;14.68;10.40;;;;;;;2.29;73.74;99955.53;5005407;28;104153;-71
2024/01/30 02:36:22;;;;;;;15.75;10.13;;;;;;;2.32;73.95;99955.41;4985383;28;104051;-72
2024/01/30 02:38:53;;;;;;;17.55;10.75;;;;;;;2.30;73.56;99944.16;4998088;28;102679;-71
2024/01/30 02:41:23;;;;;;;11.55;8.73;;;;;;;2.34;74.04;99953.53;4984113;28;102738;-72
2024/01/30 02:43:51;;;;;;;12.93;8.00;;;;;;;2.34;73.61;99948.28;4999156;28;102647;-71
2024/01/30 02:46:19;;;;;;;13.50;9.63;;;;;;;2.40;73.51;99947.97;4997398;28;104149;-71
2024/01/30 02:48:47;;;;;;;12.55;7.95;;;;;;;2.37;73.66;99953.38;4986025;28;103075;-75
2024/01/30 02:51:15;;;;;;;14.88;8.00;;;;;;;2.40;73.34;99947.97;4973506;28;102721;-71
2024/01/30 02:53:43;;;;;;;12.05;8.00;;;;;;;2.40;73.11;99947.97;5001986;28;104080;-72
2024/01/30 02:56:13;;;;;;;13.18;8.65;;;;;;;2.44;72.84;99949.47;5003310;28;103306;-71
2024/01/30 02:58:41;;;;;;;11.55;7.53;;;;;;;2.43;73.44;99939.09;5001783;28;103206;-71
2024/01/30 03:01:09;;;;;;;12.32;7.20;;;;;;;2.42;73.37;99946.09;4993910;28;102716;-71
2024/01/30 03:03:37;;;;;;;12.25;8.15;;;;;;;2.46;72.92;99946.75;4997873;28;103056;-71
2024/01/30 03:06:06;;;;;;;10.65;7.15;;;;;;;2.51;73.25;99943.91;4984267;28;103196;-71
2024/01/30 03:08:35;;;;;;;16.52;9.95;;;;;;;2.47;73.41;99938.00;4979475;28;104172;-71
2024/01/30 03:11:04;;;;;;;14.63;9.70;;;;;;;2.44;73.18;99939.00;4985055;28;102737;-71
2024/01/30 03:13:33;;;;;;;15.75;10.48;;;;;;;2.41;73.19;99940.94;4986117;28;104485;-71
2024/01/30 03:16:01;;;;;;;15.88;9.13;;;;;;;2.40;73.49;99941.91;4968935;28;107490;-71
2024/01/30 03:18:29;;;;;;;13.80;9.15;;;;;;;2.38;73.41;99944.56;4983749;28;103225;-71
2024/01/30 03:20:57;;;;;;;11.63;7.88;;;;;;;2.32;73.58;99942.31;4979670;28;102856;-71
2024/01/30 03:23:25;;;;;;;16.23;10.20;;;;;;;2.27;73.57;99941.72;4992530;28;103936;-71
2024/01/30 03:25:55;;;;;;;15.80;10.30;;;;;;;2.15;74.14;99944.06;4985774;28;102974;-71
2024/01/30 03:28:23;;;;;;;18.33;11.05;;;;;;;2.19;74.22;99943.91;4997139;28;103313;-71
2024/01/30 03:30:53;;;;;;;13.77;8.98;;;;;;;2.18;74.09;99947.47;5005264;28;102974;-71
2024/01/30 03:33:20;;;;;;;11.30;7.80;;;;;;;2.11;74.51;99946.94;4979787;28;102811;-72
2024/01/30 03:35:48;;;;;;;14.38;9.27;;;;;;;2.14;73.94;99946.78;5003530;28;103232;-71
2024/01/30 03:38:16;;;;;;;16.58;11.40;;;;;;;2.12;74.09;99944.25;4991438;28;103330;-72
2024/01/30 03:40:44;;;;;;;14.43;9.50;;;;;;;2.08;74.25;99950.56;5000861;28;102682;-74
2024/01/30 03:43:12;;;;;;;16.67;10.45;;;;;;;2.11;74.32;99949.53;5000389;28;103925;-71
2024/01/30 03:45:40;;;;;;;9.95;7.93;;;;;;;2.10;74.43;99948.72;4985047;28;104439;-72
2024/01/30 03:48:10;;;;;;;10.50;6.85;;;;;;;2.11;73.80;99958.25;5006963;28;103214;-71
2024/01/30 03:50:38;;;;;;;11.48;8.45;;;;;;;2.10;73.24;99948.72;5004698;28;102667;-72
2024/01/30 03:53:06;;;;;;;12.32;7.63;;;;;;;2.05;73.44;99957.75;4998159;28;104009;-72
2024/01/30 03:55:34;;;;;;;15.95;9.65;;;;;;;1.96;74.30;99959.06;5003779;28;103866;-73
2024/01/30 03:58:02;;;;;;;13.60;8.85;;;;;;;1.89;74.25;99957.72;4984874;28;104455;-72
2024/01/30 04:00:30;;;;;;;13.38;9.27;;;;;;;1.89;74.72;99955.09;4990837;28;102741;-71
2024/01/30 04:03:00;;;;;;;13.98;9.40;;;;;;;1.82;74.50;99958.03;5000604;28;102845;-72
2024/01/30 04:05:33;;;;;;;11.20;7.38;;;;;;;1.87;74.61;99955.16;4999667;28;104103;-72
2024/01/30 04:08:01;;;;;;;11.10;6.85;;;;;;;1.89;74.03;99962.94;5000962;28;103313;-72
2024/01/30 04:10:29;;;;;;;10.73;7.57;;;;;;;1.90;74.06;99956.78;5000720;28;102995;-72
2024/01/30 04:12:57;;;;;;;12.88;8.05;;;;;;;1.90;73.68;99959.38;4997586;28;103593;-72
2024/01/30 04:15:25;;;;;;;12.30;8.65;;;;;;;1.84;73.45;99954.50;5002157;28;103331;-71
2024/01/30 04:17:53;;;;;;;12.82;8.85;;;;;;;1.69;74.38;99953.53;4995008;28;103272;-71
2024/01/30 04:20:21;;;;;;;14.00;10.38;;;;;;;1.62;74.96;99953.00;4998864;28;102705;-71
2024/01/30 04:22:50;;;;;;;14.57;10.20;;;;;;;1.57;75.88;99953.25;4986243;28;102857;-72
2024/01/30 04:25:18;;;;;;;15.00;10.98;;;;;;;1.36;76.79;99949.97;5000898;28;104397;-72
2024/01/30 04:27:47;;;;;;;15.63;10.00;;;;;;;1.35;76.65;99937.00;5005127;28;103563;-71
2024/01/30 04:30:15;;;;;;;11.05;7.97;;;;;;;1.43;76.45;99946.13;4987286;28;102714;-72
2024/01/30 04:32:44;;;;;;;12.85;8.73;;;;;;;1.48;75.41;99945.88;5004437;28;104331;-72
2024/01/30 04:35:12;;;;;;;15.82;8.32;;;;;;;1.53;75.85;99940.44;5002540;28;103344;-71
2024/01/30 04:37:40;;;;;;;13.20;9.00;;;;;;;1.52;75.27;99937.00;5003659;28;103197;-71
2024/01/30 04:40:10;;;;;;;16.65;11.65;;;;;;;1.58;74.94;99936.66;5002678;28;102574;-71
2024/01/30 04:42:41;;;;;;;16.90;9.50;;;;;;;1.61;75.33;99943.47;5005908;28;104104;-72
2024/01/30 04:45:10;;;;;;;11.95;8.02;;;;;;;1.71;75.27;99942.06;4977352;28;104328;-71
2024/01/30 04:47:38;;;;;;;12.75;8.90;;;;;;;1.76;75.37;99944.47;5000911;28;103434;-71
2024/01/30 04:50:08;;;;;;;10.85;7.88;;;;;;;1.77;75.26;99943.50;4986809;28;102736;-72
2024/01/30 04:52:37;;;;;;;14.13;8.32;;;;;;;1.76;75.46;99947.06;4985670;28;102817;-71
2024/01/30 04:55:05;;;;;;;12.75;7.47;;;;;;;1.80;75.47;99954.66;5004460;28;103448;-72
2024/01/30 04:57:35;;;;;;;12.68;9.70;;;;;;;1.81;74.84;99956.34;5007106;28;103336;-72
2024/01/30 05:00:05;;;;;;;14.43;10.18;;;;;;;1.78;75.37;99953.03;4986591;28;102868;-71
2024/01/30 05:02:33;;;;;;;10.60;8.23;;;;;;;1.83;74.91;99948.41;4999922;28;105526;-72
2024/01/30 05:05:01;;;;;;;10.52;7.45;;;;;;;1.87;74.88;99949.94;4999924;28;103372;-71
2024/01/30 05:07:29;;;;;;;14.55;8.35;;;;;;;1.88;74.81;99950.81;4975352;28;103545;-71
2024/01/30 05:09:57;;;;;;;10.57;8.13;;;;;;;1.90;74.31;99951.53;4987265;28;102817;-71
2024/01/30 05:12:29;;;;;;;15.50;10.02;;;;;;;1.92;74.66;99947.09;4995959;28;102900;-72
2024/01/30 05:14:58;;;;;;;11.27;7.85;;;;;;;1.92;74.18;99953.16;4978153;28;104380;-71
2024/01/30 05:17:27;;;;;;;13.63;10.10;;;;;;;1.94;74.64;99950.44;5005968;28;103350;-71
2024/01/30 05:19:55;;;;;;;14.85;9.95;;;;;;;1.93;74.75;99952.22;4998114;28;103010;-72
2024/01/30 05:22:23;;;;;;;15.75;8.75;;;;;;;1.94;74.74;99956.53;4997923;28;104213;-71
2024/01/30 05:24:53;;;;;;;14.60;9.85;;;;;;;1.94;74.20;99960.91;4982307;28;104216;-71
2024/01/30 05:27:20;;;;;;;13.75;8.50;;;;;;;1.94;74.44;99955.69;4982924;28;103439;-71
2024/01/30 05:29:49;;;;;;;13.25;8.32;;;;;;;1.95;74.55;99962.59;5001468;28;102698;-71
2024/01/30 05:32:19;;;;;;;11.77;7.60;;;;;;;1.99;74.49;99959.75;4989062;28;104255;-72
2024/01/30 05:34:47;;;;;;;13.63;10.70;;;;;;;2.01;73.54;99959.66;4978890;28;104085;-71
2024/01/30 05:37:16;;;;;;;13.13;9.57;;;;;;;1.86;74.46;99953.50;5004759;28;103346;-71
2024/01/30 05:39:45;;;;;;;11.07;7.78;;;;;;;1.96;74.80;99957.28;4983631;28;103121;-71
2024/01/30 05:42:13;;;;;;;12.10;8.75;;;;;;;2.00;73.93;99960.59;4980822;28;103933;-72
2024/01/30 05:44:40;;;;;;;13.35;9.82;;;;;;;2.01;74.30;99961.44;5000771;28;104145;-71
2024/01/30 05:47:08;;;;;;;14.73;10.45;;;;;;;2.02;74.14;99963.97;4984762;28;104747;-71
2024/01/30 05:49:38;;;;;;;10.52;7.90;;;;;;;2.02;74.33;99958.75;5001190;28;102602;-72
2024/01/30 05:52:07;;;;;;;8.98;6.55;;;;;;;2.05;74.24;99965.56;4999041;28;103838;-71
2024/01/30 05:54:37;;;;;;;15.65;10.60;;;;;;;2.02;74.31;99966.59;4992270;28;103221;-72
2024/01/30 05:57:06;;;;;;;14.32;9.63;;;;;;;1.97;74.14;99968.59;4981881;28;103336;-71
2024/01/30 05:59:33;;;;;;;12.00;8.30;;;;;;;2.01;74.53;99966.66;5004651;28;102957;-71
2024/01/30 06:02:04;;;;;;;11.32;8.70;;;;;;;1.97;74.42;99971.22;4974260;28;102747;-70
2024/01/30 06:04:32;;;;;;;12.32;8.65;;;;;;;2.09;74.10;99977.53;5004417;28;104449;-71
2024/01/30 06:07:02;;;;;;;11.52;7.97;;;;;;;2.02;73.81;99966.59;4984194;28;104136;-72
2024/01/30 06:09:33;;;;;;;11.85;7.78;;;;;;;2.04;74.13;99969.94;4983861;28;102868;-73
2024/01/30 06:12:00;;;;;;;10.48;6.95;;;;;;;2.08;74.16;99966.22;5007860;28;102612;-73
2024/01/30 06:14:28;;;;;;;14.15;9.85;;;;;;;2.14;73.37;99975.53;5007241;28;103330;-73
2024/01/30 06:16:56;;;;;;;12.02;8.57;;;;;;;2.08;73.52;99968.84;4963388;28;104594;-73
2024/01/30 06:19:24;;;;;;;9.73;7.10;;;;;;;2.05;73.95;99974.25;4991230;28;102686;-73
2024/01/30 06:21:52;;;;;;;11.40;6.68;;;;;;;2.08;73.70;99971.47;4988326;28;104282;-73
2024/01/30 06:24:22;;;;;;;10.13;7.22;;;;;;;2.12;73.70;99965.16;4986481;27;104387;-73
2024/01/30 06:26:50;;;;;;;10.65;7.05;;;;;;;2.12;73.42;99973.00;4981993;28;104257;-73
2024/01/30 06:29:20;;;;;;;11.57;7.63;;;;;;;2.17;73.07;99964.06;4981921;28;102919;-73
2024/01/30 06:31:48;;;;;;;9.13;6.30;;;;;;;2.15;73.31;99975.44;5002108;28;103790;-73
2024/01/30 06:34:17;;;;;;;11.30;7.20;;;;;;;2.19;73.10;99975.25;4984744;28;104183;-73
2024/01/30 06:36:45;;;;;;;9.27;6.60;;;;;;;2.12;73.01;99972.16;4985906;28;103812;-73
2024/01/30 06:39:13;;;;;;;10.63;7.55;;;;;;;2.13;73.64;99976.44;4991833;28;102644;-70
2024/01/30 06:41:42;;;;;;;11.00;7.93;;;;;;;2.10;73.21;99974.00;4999748;28;103824;-72
2024/01/30 06:44:10;;;;;;;15.23;10.25;;;;;;;2.13;72.97;99971.22;4995609;27;105261;-74
2024/01/30 06:46:38;;;;;;;14.27;10.70;;;;;;;2.14;72.76;99978.16;5002189;28;103424;-73
2024/01/30 06:49:06;;;;;;;12.45;8.90;;;;;;;2.09;72.91;99980.16;5001992;28;102911;-72
2024/01/30 06:51:34;;;;;;;13.43;9.55;;;;;;;2.12;72.97;99980.84;4997700;28;104069;-73
2024/01/30 06:54:02;;;;;;;9.35;7.40;;;;;;;2.04;72.91;99977.78;4995225;28;103157;-73
2024/01/30 06:56:30;;;;;;;11.75;7.15;;;;;;;2.08;73.44;99976.69;5009395;28;103321;-73
2024/01/30 06:59:00;;;;;;;13.73;7.78;;;;;;;2.10;73.62;99979.25;5001818;28;102666;-74
2024/01/30 07:01:29;;;;;;;10.38;7.20;;;;;;;2.08;73.16;99979.31;4983212;28;103448;-74
2024/01/30 07:04:01;;;;;;;12.73;9.68;;;;;;;2.14;72.81;99981.59;4976099;28;103603;-73
2024/01/30 07:06:29;;;;;;;16.23;10.73;;;;;;;2.03;73.46;99989.19;4977540;28;103372;-76
2024/01/30 07:08:57;;;;;;;12.02;8.82;;;;;;;2.05;73.60;99992.53;5005438;28;102764;-76
2024/01/30 07:11:25;;;;;;;12.85;8.27;;;;;;;2.11;73.29;99988.75;4995077;28;104090;-76
2024/01/30 07:13:53;;;;;;;15.45;9.70;;;;;;;2.16;73.24;99997.19;5012441;28;102675;-76
2024/01/30 07:16:23;;;;;;;9.95;7.80;;;;;;;2.17;72.91;99996.25;5007212;28;103265;-76
2024/01/30 07:18:51;;;;;;;12.50;8.60;;;;;;;2.22;72.27;99996.03;5005409;28;102766;-76
2024/01/30 07:21:21;;;;;;;12.45;7.72;;;;;;;2.21;73.27;99996.97;4995660;28;103335;-76
2024/01/30 07:23:49;;;;;;;10.25;7.20;;;;;;;2.30;72.51;99993.84;5010540;28;103912;-76
2024/01/30 07:26:17;;;;;;;11.55;7.03;;;;;;;2.36;72.83;100003.97;4998969;28;103286;-75
2024/01/30 07:28:45;;;;;;;14.43;9.35;;;;;;;2.41;72.12;99999.34;5003182;28;102840;-74
2024/01/30 07:31:13;;;;;;;15.95;9.82;;;;;;;2.49;71.85;99999.75;4989843;28;104104;-76
2024/01/30 07:33:42;;;;;;;13.45;9.27;;;;;;;2.59;72.13;99991.38;5008211;28;103343;-76
2024/01/30 07:36:11;;;;;;;13.82;8.57;;;;;;;2.65;71.55;99994.50;5005588;28;103143;-75
2024/01/30 07:38:40;;;;;;;10.45;6.95;;;;;;;2.74;71.42;99998.38;5002237;28;102864;-73
2024/01/30 07:41:08;;;;;;;11.50;7.15;;;;;;;2.81;71.46;99993.66;4982987;28;103996;-74
2024/01/30 07:43:36;;;;;;;11.05;6.72;;;;;;;2.81;71.68;99993.66;5003378;28;104101;-74
2024/01/30 07:46:06;;;;;;;13.15;8.25;;;;;;;2.82;71.12;100001.41;4993561;28;103411;-75
2024/01/30 07:48:34;;;;;;;11.63;7.65;;;;;;;2.89;71.25;100001.06;5010105;28;102606;-75
2024/01/30 07:51:04;;;;;;;10.43;7.05;;;;;;;2.95;71.00;100000.72;4997788;28;103379;-75
2024/01/30 07:53:32;;;;;;;14.90;8.35;;;;;;;3.00;70.98;99988.22;5011190;28;103377;-75
2024/01/30 07:55:59;;;;;;;14.38;8.48;;;;;;;2.96;71.08;99997.16;5013018;28;103247;-75
2024/01/30 07:58:27;;;;;;;16.90;10.75;;;;;;;2.98;70.02;99998.75;5011396;28;102747;-76
2024/01/30 08:00:58;;;;;;;10.63;7.72;;;;;;;2.93;70.61;99997.34;5010542;28;102722;-75
2024/01/30 08:03:26;;;;;;;11.85;8.13;;;;;;;3.04;70.47;100005.44;5015216;28;103443;-75
2024/01/30 08:05:55;;;;;;;14.80;9.07;;;;;;;3.02;70.30;100012.53;5004030;28;103224;-75
2024/01/30 08:08:25;;;;;;;12.35;7.88;;;;;;;3.14;70.82;100001.38;4989869;28;102656;-74
2024/01/30 08:10:53;;;;;;;11.55;8.25;;;;;;;3.29;69.67;99994.38;5008629;28;102637;-75
2024/01/30 08:13:21;;;;;;;16.02;8.10;;;;;;;3.38;69.72;99998.25;4976252;28;104947;-74
2024/01/30 08:15:49;;;;;;;13.93;9.60;;;;;;;3.48;69.50;99994.16;5006417;28;103334;-75
2024/01/30 08:18:17;;;;;;;14.45;8.57;;;;;;;3.62;68.89;99992.50;4996145;28;102811;-74
2024/01/30 08:20:47;;;;;;;13.23;7.45;;;;;;;3.81;68.49;99990.44;5009400;28;103533;-75
2024/01/30 08:23:15;;;;;;;13.93;8.75;;;;;;;4.03;67.55;99994.34;4995946;28;104265;-75
2024/01/30 08:25:45;;;;;;;10.82;7.22;;;;;;;4.12;67.75;99993.78;4987381;28;103093;-76
2024/01/30 08:28:13;;;;;;;15.13;7.95;;;;;;;4.30;67.46;99997.06;5007708;28;102985;-74
2024/01/30 08:30:44;;;;;;;11.63;7.43;;;;;;;4.46;67.06;99994.31;4990485;28;103000;-75
2024/01/30 08:33:12;;;;;;;11.30;7.40;;;;;;;4.52;66.47;99994.84;5011716;28;104051;-75
2024/01/30 08:35:41;;;;;;;12.05;8.48;;;;;;;4.62;65.78;99991.56;5001581;28;103213;-75
2024/01/30 08:38:09;;;;;;;13.43;9.02;;;;;;;4.79;65.95;99994.88;4996130;28;102675;-78
2024/01/30 08:40:37;;;;;;;10.00;6.97;;;;;;;4.95;65.61;99992.09;5013536;28;104146;-81
2024/01/30 08:43:08;;;;;;;14.18;8.93;;;;;;;5.15;64.87;99993.44;4994499;28;104305;-77
2024/01/30 08:45:36;;;;;;;9.38;6.85;;;;;;;5.37;65.17;99992.84;5014304;28;102952;-77
2024/01/30 08:48:04;;;;;;;13.57;8.30;;;;;;;5.34;63.93;99995.66;5008113;28;102648;-75
2024/01/30 08:50:32;;;;;;;12.60;7.90;;;;;;;5.31;64.04;99988.81;5016159;28;103575;-78
2024/01/30 08:53:00;;;;;;;14.55;9.32;;;;;;;5.31;64.14;99988.81;5014460;28;103227;-75
2024/01/30 08:55:28;;;;;;;11.80;8.40;;;;;;;5.31;63.76;99996.69;5010770;28;103056;-77
2024/01/30 08:57:56;;;;;;;12.18;7.85;;;;;;;5.34;64.03;99995.66;5018265;28;102693;-77
2024/01/30 09:00:25;;;;;;;13.63;8.57;;;;;;;5.40;63.57;99995.25;4997876;28;104420;-77
2024/01/30 09:02:54;;;;;;;10.65;7.70;;;;;;;5.52;63.30;99995.38;5003718;28;104218;-76
2024/01/30 09:05:21;;;;;;;10.75;7.53;;;;;;;5.57;62.92;99994.13;4994087;28;103275;-75
2024/01/30 09:07:50;;;;;;;13.63;8.18;;;;;;;5.75;61.88;99997.28;4989532;28;102825;-75
2024/01/30 09:10:18;;;;;;;13.32;8.10;;;;;;;5.73;62.25;99999.16;5010354;28;103265;-74
2024/01/30 09:12:49;;;;;;;12.75;7.68;;;;;;;5.80;62.35;99999.56;4994257;28;104239;-76
2024/01/30 09:15:19;;;;;;;9.57;7.13;;;;;;;5.96;62.36;100010.72;5010340;28;103358;-75
2024/01/30 09:17:49;;;;;;;9.77;6.45;;;;;;;6.01;62.12;100007.78;5014057;28;102682;-75
2024/01/30 09:20:17;;;;;;;13.75;7.60;;;;;;;6.11;62.01;100008.84;5009248;28;102921;-75
2024/01/30 09:22:46;;;;;;;12.00;7.55;;;;;;;6.12;61.06;100015.78;5014195;28;104449;-74
2024/01/30 09:25:14;;;;;;;11.30;7.18;;;;;;;6.04;61.98;100018.13;4977186;28;104298;-75
2024/01/30 09:27:42;;;;;;;11.25;7.75;;;;;;;6.13;61.37;100014.84;4979465;28;102678;-75
2024/01/30 09:30:11;;;;;;;9.38;6.43;;;;;;;6.25;61.52;100014.91;5008957;28;102783;-75
2024/01/30 09:32:41;;;;;;;12.45;7.95;;;;;;;6.48;60.69;100021.19;5007311;28;104343;-72
2024/01/30 09:35:11;;;;;;;13.20;8.27;;;;;;;6.50;60.49;100018.44;4990810;28;104345;-73
2024/01/30 09:37:39;;;;;;;9.90;6.78;;;;;;;6.54;60.73;100015.50;5009085;28;102775;-77
2024/01/30 09:40:08;;;;;;;18.20;8.02;;;;;;;6.66;60.50;100012.94;5012694;28;102778;-77
2024/01/30 09:42:37;;;;;;;14.77;7.18;;;;;;;6.76;59.83;100014.81;4993011;28;104572;-80
2024/01/30 09:45:06;;;;;;;14.00;8.70;;;;;;;6.84;59.66;100021.28;4990420;28;103401;-83
2024/01/30 09:47:41;;;;;;;12.60;7.97;;;;;;;6.90;59.31;100018.22;4987476;28;102820;-78
2024/01/30 09:50:12;;;;;;;11.18;7.63;;;;;;;7.05;59.14;100018.88;4988171;28;102773;-73
2024/01/30 09:52:41;;;;;;;13.48;7.75;;;;;;;7.17;59.28;100011.88;4983741;28;105018;-74
2024/01/30 09:55:10;;;;;;;8.50;5.82;;;;;;;7.31;59.64;100014.34;5001102;28;103273;-75
2024/01/30 09:57:39;;;;;;;12.98;7.68;;;;;;;7.36;59.27;100013.97;5000193;28;103202;-76
2024/01/30 10:00:08;;;;;;;14.23;7.82;;;;;;;7.34;58.79;100010.63;5003899;27;104580;-76
2024/01/30 10:02:41;;;;;;;12.45;8.88;;;;;;;7.47;58.15;100020.13;5001730;28;103820;-77
2024/01/30 10:05:12;;;;;;;10.93;8.13;;;;;;;7.53;58.52;100012.69;4987747;28;104721;-76
2024/01/30 10:07:51;;;;;;;11.68;7.35;;;;;;;7.69;57.27;100013.22;4986536;28;103079;-76
2024/01/30 10:10:19;;;;;;;13.00;7.47;;;;;;;7.77;57.59;100005.56;5007162;28;103964;-75
2024/01/30 10:12:48;;;;;;;14.15;8.65;;;;;;;7.66;57.76;100016.06;5000422;28;102983;-75
2024/01/30 10:15:18;;;;;;;13.40;8.13;;;;;;;7.82;57.78;100014.91;4978375;28;104345;-74
2024/01/30 10:17:46;;;;;;;10.23;6.80;;;;;;;7.87;58.62;100007.47;4988549;28;102702;-75
2024/01/30 10:20:17;;;;;;;12.48;8.20;;;;;;;7.91;57.85;100012.41;5005098;28;102673;-74
2024/01/30 10:22:45;;;;;;;12.52;8.02;;;;;;;7.92;57.81;100007.97;4985092;28;104186;-75
2024/01/30 10:25:14;;;;;;;17.15;9.00;;;;;;;7.97;58.13;100011.09;4986499;28;103266;-73
2024/01/30 10:27:41;;;;;;;16.80;9.00;;;;;;;7.97;57.42;100009.28;5000960;28;102722;-75
2024/01/30 10:30:10;;;;;;;13.18;7.85;;;;;;;8.04;57.40;100009.63;4984574;28;102825;-74
2024/01/30 10:32:38;;;;;;;11.77;7.60;;;;;;;8.14;57.87;100002.69;5012384;28;103352;-74
2024/01/30 10:35:06;;;;;;;12.77;7.05;;;;;;;8.16;57.46;100005.19;5009280;28;103210;-74
2024/01/30 10:37:35;;;;;;;17.00;8.82;;;;;;;8.17;57.20;100003.41;5006602;28;102777;-74
2024/01/30 10:40:05;;;;;;;9.88;6.00;;;;;;;8.31;57.09;99995.25;4980451;28;104235;-74
2024/01/30 10:42:38;;;;;;;11.60;7.18;;;;;;;8.20;56.83;99995.25;5014795;28;104050;-73
2024/01/30 10:45:08;;;;;;;12.40;8.73;;;;;;;8.38;57.07;99990.31;5005626;28;103270;-74
2024/01/30 10:47:37;;;;;;;13.48;8.38;;;;;;;8.40;57.71;99991.06;4999204;28;103031;-74
2024/01/30 10:50:10;;;;;;;16.00;8.50;;;;;;;8.41;55.89;99987.44;4980410;28;103846;-74
2024/01/30 10:52:42;;;;;;;8.80;6.93;;;;;;;8.38;56.80;99985.88;4988661;28;104125;-74
2024/01/30 10:55:11;;;;;;;10.88;7.03;;;;;;;8.54;56.68;99988.19;5006201;28;103774;-74
2024/01/30 10:57:39;;;;;;;18.42;8.68;;;;;;;8.59;56.43;99979.88;5001882;28;102561;-74
2024/01/30 11:00:10;;;;;;;12.93;7.30;;;;;;;8.58;56.58;99983.47;4990134;28;104208;-74
2024/01/30 11:02:40;;;;;;;17.63;9.10;;;;;;;8.71;55.99;99984.16;5001596;28;104278;-74
2024/01/30 11:05:09;;;;;;;9.98;7.50;;;;;;;8.63;56.59;99976.00;4978837;28;103161;-74
2024/01/30 11:07:41;;;;;;;16.83;9.30;;;;;;;8.67;55.74;99977.44;5007404;28;102744;-75
2024/01/30 11:10:12;;;;;;;20.33;8.30;;;;;;;8.87;56.74;99978.47;4996964;28;102685;-75
2024/01/30 11:12:43;;;;;;;10.48;6.60;;;;;;;8.74;56.47;99977.81;5000378;28;104433;-74
2024/01/30 11:15:14;;;;;;;9.35;5.68;;;;;;;8.85;56.11;99975.09;4998291;28;103164;-75
2024/01/30 11:17:50;;;;;;;10.25;6.28;;;;;;;9.01;55.65;99979.13;5002046;28;102753;-74
2024/01/30 11:20:22;;;;;;;12.75;8.02;;;;;;;9.01;54.78;99979.97;4985864;28;103750;-75
2024/01/30 11:22:54;;;;;;;16.77;8.65;;;;;;;8.89;54.70;99983.63;4982081;28;104347;-74
2024/01/30 11:25:23;;;;;;;9.38;6.40;;;;;;;9.04;55.17;99969.16;4991507;28;103228;-74
2024/01/30 11:27:52;;;;;;;17.50;7.55;;;;;;;9.20;55.01;99970.53;5000991;28;102768;-75